createdAt,value
2019-03-23T00:02:15.481Z,74.97
2019-03-23T00:04:44.252Z,78.50
2019-03-23T00:07:13.193Z,76.73
2019-03-23T00:09:41.856Z,83.20
2019-03-23T00:12:10.484Z,73.70
2019-03-23T00:14:39.264Z,78.47
2019-03-23T00:17:07.902Z,78.20
2019-03-23T00:19:36.743Z,78.60
2019-03-23T00:22:05.598Z,85.60
2019-03-23T00:24:34.265Z,80.37
2019-03-23T00:27:03.127Z,77.53
2019-03-23T00:29:31.841Z,75.47
2019-03-23T00:32:00.711Z,75.50
2019-03-23T00:34:29.347Z,87.83
2019-03-23T00:36:57.970Z,80.93
2019-03-23T00:39:26.781Z,68.63
2019-03-23T00:41:55.597Z,77.30
2019-03-23T00:44:24.281Z,76.03
2019-03-23T00:46:52.949Z,76.23
2019-03-23T00:49:21.745Z,74.90
2019-03-23T00:51:50.380Z,81.37
2019-03-23T00:54:19.060Z,77.73
2019-03-23T00:56:47.995Z,77.33
2019-03-23T00:59:16.692Z,76.60
2019-03-23T01:01:45.340Z,75.77
2019-03-23T01:04:15.936Z,76.13
2019-03-23T01:06:52.123Z,69.03
2019-03-23T01:09:15.124Z,79.00
2019-03-23T01:11:43.947Z,79.47
2019-03-23T01:14:12.611Z,86.23
2019-03-23T01:16:41.320Z,81.57
2019-03-23T01:19:10.124Z,76.73
2019-03-23T01:21:38.985Z,77.93
2019-03-23T01:24:07.741Z,83.37
2019-03-23T01:26:36.383Z,79.97
2019-03-23T01:29:07.043Z,82.13
2019-03-23T01:31:35.691Z,84.70
2019-03-23T01:34:06.428Z,81.17
2019-03-23T01:36:35.445Z,80.37
2019-03-23T01:39:06.567Z,86.10
2019-03-23T01:41:35.217Z,83.80
2019-03-23T01:44:04.808Z,77.83
2019-03-23T01:46:33.452Z,80.23
2019-03-23T01:49:02.206Z,83.37
2019-03-23T01:51:30.840Z,78.73
2019-03-23T01:53:59.595Z,76.13
2019-03-23T01:56:28.433Z,79.20
2019-03-23T01:58:57.063Z,81.50
2019-03-23T02:01:25.725Z,78.47
2019-03-23T02:03:54.518Z,82.67
2019-03-23T02:06:23.159Z,79.57
2019-03-23T02:08:51.838Z,81.40
2019-03-23T02:11:20.694Z,86.07
2019-03-23T02:13:51.130Z,82.60
2019-03-23T02:16:19.930Z,79.43
2019-03-23T02:18:48.547Z,76.07
2019-03-23T02:21:17.411Z,87.63
2019-03-23T02:23:46.265Z,80.43
2019-03-23T02:26:14.934Z,89.70
2019-03-23T02:28:43.773Z,83.67
2019-03-23T02:31:12.419Z,83.83
2019-03-23T02:33:42.172Z,79.73
2019-03-23T02:36:10.920Z,79.50
2019-03-23T02:38:39.579Z,81.43
2019-03-23T02:41:08.267Z,80.70
2019-03-23T02:43:37.117Z,79.67
2019-03-23T02:46:05.782Z,79.30
2019-03-23T02:48:34.471Z,75.00
2019-03-23T02:51:03.329Z,77.60
2019-03-23T02:53:31.946Z,79.50
2019-03-23T02:56:00.617Z,72.33
2019-03-23T02:58:29.503Z,70.00
2019-03-23T03:00:58.231Z,73.37
2019-03-23T03:03:26.860Z,76.63
2019-03-23T03:05:55.594Z,76.03
2019-03-23T03:08:24.219Z,77.60
2019-03-23T03:10:52.869Z,72.13
2019-03-23T03:13:21.750Z,72.30
2019-03-23T03:15:50.474Z,73.80
2019-03-23T03:18:19.142Z,75.37
2019-03-23T03:20:48.425Z,75.50
2019-03-23T03:23:17.162Z,73.70
2019-03-23T03:25:46.228Z,80.80
2019-03-23T03:28:14.898Z,72.73
2019-03-23T03:30:43.815Z,82.77
2019-03-23T03:33:15.893Z,84.60
2019-03-23T03:35:45.848Z,76.13
2019-03-23T03:38:14.830Z,83.63
2019-03-23T03:40:43.542Z,79.97
2019-03-23T03:43:13.641Z,81.73
2019-03-23T03:45:42.899Z,82.87
2019-03-23T03:48:11.570Z,79.73
2019-03-23T03:50:40.392Z,79.97
2019-03-23T03:53:09.134Z,81.90
2019-03-23T03:55:38.099Z,78.10
2019-03-23T03:58:09.731Z,82.43
2019-03-23T04:00:40.254Z,83.03
2019-03-23T04:03:08.974Z,77.63
2019-03-23T04:05:38.867Z,86.83
2019-03-23T04:08:11.457Z,81.83
2019-03-23T04:10:41.703Z,88.43
2019-03-23T04:13:11.552Z,87.37
2019-03-23T04:15:41.356Z,87.10
2019-03-23T04:18:10.179Z,84.73
2019-03-23T04:20:42.045Z,79.90
2019-03-23T04:23:10.756Z,91.53
2019-03-23T04:25:39.683Z,88.10
2019-03-23T04:28:08.953Z,89.97
2019-03-23T04:30:38.547Z,90.40
2019-03-23T04:33:08.670Z,89.40
2019-03-23T04:35:46.314Z,88.90
2019-03-23T04:38:22.658Z,88.83
2019-03-23T04:40:47.393Z,92.07
2019-03-23T04:43:19.480Z,89.73
2019-03-23T04:45:48.815Z,89.43
2019-03-23T04:48:20.415Z,86.10
2019-03-23T04:50:50.499Z,91.57
2019-03-23T04:53:19.347Z,90.03
2019-03-23T04:55:49.667Z,90.97
2019-03-23T04:58:20.022Z,89.17
2019-03-23T05:00:48.967Z,92.57
2019-03-23T05:03:18.418Z,86.80
2019-03-23T05:05:47.693Z,91.97
2019-03-23T05:08:20.154Z,94.63
2019-03-23T05:10:51.702Z,88.10
2019-03-23T05:13:20.487Z,91.17
2019-03-23T05:15:49.451Z,98.40
2019-03-23T05:18:18.155Z,94.27
2019-03-23T05:20:46.839Z,88.80
2019-03-23T05:23:15.735Z,106.07
2019-03-23T05:25:44.711Z,93.87
2019-03-23T05:28:13.618Z,92.47
2019-03-23T05:30:42.257Z,91.60
2019-03-23T05:33:10.942Z,93.67
2019-03-23T05:35:39.795Z,94.70
2019-03-23T05:38:08.488Z,90.37
2019-03-23T05:40:37.177Z,98.47
2019-03-23T05:43:07.830Z,90.00
2019-03-23T05:45:36.712Z,89.63
2019-03-23T05:48:05.614Z,91.73
2019-03-23T05:50:34.363Z,99.27
2019-03-23T05:53:03.174Z,91.67
2019-03-23T05:55:31.823Z,97.53
2019-03-23T05:58:02.616Z,95.00
2019-03-23T06:00:31.344Z,97.73
2019-03-23T06:03:00.191Z,87.33
2019-03-23T06:05:28.881Z,93.57
2019-03-23T06:07:57.533Z,86.47
2019-03-23T06:10:29.647Z,93.07
2019-03-23T06:12:58.421Z,94.20
2019-03-23T06:15:28.273Z,89.30
2019-03-23T06:17:57.157Z,103.60
2019-03-23T06:20:26.038Z,92.13
2019-03-23T06:22:55.901Z,99.67
2019-03-23T06:25:24.573Z,87.17
2019-03-23T06:27:53.454Z,94.07
2019-03-23T06:30:22.179Z,90.80
2019-03-23T06:32:51.126Z,92.57
2019-03-23T06:35:20.011Z,90.10
2019-03-23T06:37:48.729Z,91.20
2019-03-23T06:40:17.468Z,88.10
2019-03-23T06:42:47.354Z,89.63
2019-03-23T06:45:16.349Z,91.03
2019-03-23T06:47:45.065Z,95.30
2019-03-23T06:50:14.205Z,87.93
2019-03-23T06:52:42.940Z,86.00
2019-03-23T06:55:11.609Z,89.20
2019-03-23T06:57:40.595Z,87.30
2019-03-23T07:00:10.194Z,88.87
2019-03-23T07:02:38.899Z,83.43
2019-03-23T07:05:08.234Z,83.33
2019-03-23T07:07:37.052Z,80.93
2019-03-23T07:10:07.690Z,80.03
2019-03-23T07:12:36.812Z,82.73
2019-03-23T07:15:19.142Z,80.73
2019-03-23T07:17:38.795Z,77.30
2019-03-23T07:20:09.126Z,78.57
2019-03-23T07:22:38.100Z,86.17
2019-03-23T07:25:07.904Z,73.07
2019-03-23T07:27:36.763Z,79.77
2019-03-23T07:30:08.676Z,81.97
2019-03-23T07:32:38.814Z,78.20
2019-03-23T07:35:07.926Z,81.00
2019-03-23T07:37:36.584Z,78.30
2019-03-23T07:40:07.692Z,71.00
2019-03-23T07:42:36.366Z,68.03
2019-03-23T07:45:10.618Z,74.60
2019-03-23T07:47:39.571Z,71.17
2019-03-23T07:50:09.053Z,72.13
2019-03-23T07:52:37.708Z,72.30
2019-03-23T07:55:14.093Z,68.87
2019-03-23T07:57:42.961Z,72.70
2019-03-23T08:00:15.673Z,69.43
2019-03-23T08:02:44.345Z,68.10
2019-03-23T08:05:12.967Z,68.50
2019-03-23T08:07:41.774Z,63.33
2019-03-23T08:10:19.683Z,68.73
2019-03-23T08:12:48.479Z,64.47
2019-03-23T08:15:17.195Z,67.93
2019-03-23T08:17:45.954Z,63.50
2019-03-23T08:20:14.601Z,61.43
2019-03-23T08:22:43.445Z,61.90
2019-03-23T08:25:12.501Z,62.60
2019-03-23T08:27:41.721Z,62.57
2019-03-23T08:30:10.748Z,61.27
2019-03-23T08:32:39.461Z,52.50
2019-03-23T08:35:08.283Z,58.43
2019-03-23T08:37:36.916Z,62.90
2019-03-23T08:40:06.711Z,55.77
2019-03-23T08:42:35.473Z,58.73
2019-03-23T08:45:04.526Z,54.60
2019-03-23T08:47:33.304Z,60.83
2019-03-23T08:50:01.935Z,52.60
2019-03-23T08:52:30.710Z,57.03
2019-03-23T08:54:59.343Z,59.80
2019-03-23T08:57:28.014Z,62.30
2019-03-23T08:59:56.730Z,55.07
2019-03-23T09:02:25.395Z,57.60
2019-03-23T09:04:54.043Z,53.30
2019-03-23T09:07:22.783Z,51.43
2019-03-23T09:09:59.151Z,50.60
2019-03-23T09:12:21.997Z,48.10
2019-03-23T09:14:50.720Z,51.83
2019-03-23T09:17:19.372Z,53.33
2019-03-23T09:19:48.574Z,49.70
2019-03-23T09:22:19.285Z,55.90
2019-03-23T09:24:47.871Z,51.97
2019-03-23T09:27:16.635Z,48.90
2019-03-23T09:29:45.525Z,47.03
2019-03-23T09:32:14.192Z,54.83
2019-03-23T09:34:42.973Z,48.13
2019-03-23T09:37:11.772Z,48.20
2019-03-23T09:39:40.427Z,48.27
2019-03-23T09:42:10.485Z,44.43
2019-03-23T09:44:39.313Z,49.57
2019-03-23T09:47:08.002Z,51.37
2019-03-23T09:49:36.808Z,49.37
2019-03-23T09:52:05.452Z,48.13
2019-03-23T09:54:34.104Z,48.73
2019-03-23T09:57:02.866Z,43.80
2019-03-23T09:59:31.653Z,48.17
2019-03-23T10:02:00.337Z,50.00
2019-03-23T10:04:29.109Z,48.70
2019-03-23T10:06:57.894Z,46.20
2019-03-23T10:09:26.549Z,45.40
2019-03-23T10:11:55.216Z,49.33
2019-03-23T10:14:24.311Z,48.60
2019-03-23T10:16:52.948Z,45.43
2019-03-23T10:19:23.349Z,44.00
2019-03-23T10:21:52.313Z,46.53
2019-03-23T10:24:20.956Z,43.90
2019-03-23T10:26:52.111Z,47.80
2019-03-23T10:29:20.655Z,40.43
2019-03-23T10:31:49.451Z,46.47
2019-03-23T10:34:18.095Z,40.83
2019-03-23T10:36:46.912Z,41.70
2019-03-23T10:39:15.720Z,41.30
2019-03-23T10:41:44.473Z,40.63
2019-03-23T10:44:13.142Z,38.87
2019-03-23T10:46:42.024Z,39.80
2019-03-23T10:49:10.640Z,43.20
2019-03-23T10:51:39.402Z,44.40
2019-03-23T10:54:08.169Z,41.63
2019-03-23T10:56:36.935Z,33.93
2019-03-23T10:59:05.711Z,39.50
2019-03-23T11:01:34.450Z,38.00
2019-03-23T11:04:03.189Z,41.53
2019-03-23T11:06:31.829Z,38.70
2019-03-23T11:09:00.564Z,37.83
2019-03-23T11:11:29.182Z,37.93
2019-03-23T11:13:57.984Z,36.20
2019-03-23T11:16:26.636Z,37.03
2019-03-23T11:18:55.282Z,41.23
2019-03-23T11:21:24.083Z,33.47
2019-03-23T11:23:52.719Z,38.53
2019-03-23T11:26:21.350Z,35.10
2019-03-23T11:28:50.236Z,37.63
2019-03-23T11:31:18.921Z,38.90
2019-03-23T11:33:47.728Z,35.93
2019-03-23T11:36:16.349Z,42.73
2019-03-23T11:38:44.988Z,36.97
2019-03-23T11:41:13.769Z,36.97
2019-03-23T11:43:42.409Z,36.80
2019-03-23T11:46:11.183Z,39.20
2019-03-23T11:48:39.846Z,36.00
2019-03-23T11:51:08.768Z,35.27
2019-03-23T11:53:37.429Z,37.93
2019-03-23T11:56:06.188Z,37.30
2019-03-23T11:58:34.940Z,37.87
2019-03-23T12:01:03.599Z,37.60
2019-03-23T12:03:32.232Z,35.53
2019-03-23T12:06:00.980Z,34.83
2019-03-23T12:08:29.752Z,33.73
2019-03-23T12:11:02.845Z,35.60
2019-03-23T12:13:29.090Z,34.07
2019-03-23T12:15:57.749Z,37.03
2019-03-23T12:18:26.408Z,36.47
2019-03-23T12:20:55.148Z,33.73
2019-03-23T12:23:23.809Z,36.20
2019-03-23T12:25:52.532Z,37.80
2019-03-23T12:28:22.012Z,34.47
2019-03-23T12:30:50.716Z,31.50
2019-03-23T12:33:21.434Z,37.37
2019-03-23T12:35:50.004Z,35.63
2019-03-23T12:38:18.748Z,31.73
2019-03-23T12:40:47.524Z,36.00
2019-03-23T12:43:16.282Z,34.20
2019-03-23T12:45:46.289Z,40.00
2019-03-23T12:48:15.064Z,33.20
2019-03-23T12:50:43.704Z,33.37
2019-03-23T12:53:13.435Z,34.20
2019-03-23T12:55:42.447Z,34.70
2019-03-23T12:58:11.303Z,32.90
2019-03-23T13:00:40.046Z,32.17
2019-03-23T13:03:08.843Z,31.53
2019-03-23T13:05:37.526Z,26.97
2019-03-23T13:08:06.629Z,28.07
2019-03-23T13:10:35.302Z,24.97
2019-03-23T13:13:03.940Z,27.00
2019-03-23T13:15:32.721Z,20.23
2019-03-23T13:18:03.283Z,21.97
2019-03-23T13:20:32.146Z,18.13
2019-03-23T13:23:01.244Z,14.33
2019-03-23T13:25:30.027Z,12.90
2019-03-23T13:27:58.763Z,18.83
2019-03-23T13:30:27.625Z,14.60
2019-03-23T13:32:56.518Z,12.73
2019-03-23T13:35:25.168Z,20.97
2019-03-23T13:37:54.641Z,17.87
2019-03-23T13:40:23.704Z,14.03
2019-03-23T13:42:52.362Z,14.97
2019-03-23T13:45:21.204Z,17.70
2019-03-23T13:47:49.907Z,17.50
2019-03-23T13:50:27.390Z,21.17
2019-03-23T13:52:56.250Z,20.70
2019-03-23T13:55:28.129Z,20.73
2019-03-23T13:58:10.417Z,17.33
2019-03-23T14:00:58.453Z,21.90
2019-03-23T14:03:32.103Z,19.87
2019-03-23T14:06:02.708Z,25.83
2019-03-23T14:08:33.457Z,20.30
2019-03-23T14:11:02.334Z,18.70
2019-03-23T14:13:30.982Z,19.50
2019-03-23T14:15:59.642Z,17.17
2019-03-23T14:18:28.441Z,12.47
2019-03-23T14:20:57.103Z,19.20
2019-03-23T14:23:25.966Z,13.67
2019-03-23T14:25:54.635Z,20.90
2019-03-23T14:28:23.280Z,17.13
2019-03-23T14:30:52.143Z,18.53
2019-03-23T14:33:21.263Z,14.07
2019-03-23T14:35:50.162Z,15.37
2019-03-23T14:38:18.891Z,21.23
2019-03-23T14:40:47.722Z,15.83
2019-03-23T14:43:16.402Z,19.50
2019-03-23T14:45:45.059Z,24.47
2019-03-23T14:48:14.023Z,18.70
2019-03-23T14:50:42.892Z,19.57
2019-03-23T14:53:11.554Z,21.57
2019-03-23T14:55:40.484Z,18.83
2019-03-23T14:58:09.173Z,19.00
2019-03-23T15:00:37.961Z,19.30
2019-03-23T15:03:06.664Z,19.70
2019-03-23T15:05:37.526Z,13.73
2019-03-23T15:08:06.389Z,16.17
2019-03-23T15:10:35.230Z,21.30
2019-03-23T15:13:03.892Z,13.63
2019-03-23T15:15:32.581Z,16.57
2019-03-23T15:18:01.394Z,9.03
2019-03-23T15:20:30.083Z,11.87
2019-03-23T15:22:58.947Z,7.63
2019-03-23T15:25:27.836Z,12.50
2019-03-23T15:27:56.526Z,12.03
2019-03-23T15:30:25.248Z,10.80
2019-03-23T15:32:56.059Z,12.07
2019-03-23T15:35:24.985Z,6.97
2019-03-23T15:37:53.612Z,9.27
2019-03-23T15:40:22.445Z,5.67
2019-03-23T15:42:51.334Z,8.23
2019-03-23T15:45:20.068Z,10.03
2019-03-23T15:47:48.765Z,8.47
2019-03-23T15:50:17.614Z,7.70
2019-03-23T15:52:46.327Z,13.03
2019-03-23T15:55:15.036Z,7.50
2019-03-23T15:57:43.891Z,8.97
2019-03-23T16:00:13.778Z,8.80
2019-03-23T16:02:42.786Z,9.03
2019-03-23T16:05:12.578Z,8.27
2019-03-23T16:07:41.482Z,10.10
2019-03-23T16:10:10.808Z,9.70
2019-03-23T16:12:39.496Z,12.53
2019-03-23T16:15:10.302Z,8.80
2019-03-23T16:17:39.094Z,10.03
2019-03-23T16:20:09.222Z,6.03
2019-03-23T16:22:38.161Z,10.57
2019-03-23T16:25:08.725Z,6.47
2019-03-23T16:27:37.618Z,10.77
2019-03-23T16:30:08.910Z,7.40
2019-03-23T16:32:37.661Z,9.43
2019-03-23T16:35:07.201Z,7.47
2019-03-23T16:37:36.017Z,10.20
2019-03-23T16:40:10.999Z,4.90
2019-03-23T16:42:45.367Z,6.60
2019-03-23T16:45:10.687Z,12.40
2019-03-23T16:47:39.360Z,11.93
2019-03-23T16:50:09.649Z,8.33
2019-03-23T16:52:38.774Z,8.87
2019-03-23T16:55:09.659Z,12.50
2019-03-23T16:57:38.542Z,8.83
2019-03-23T17:00:07.979Z,10.57
2019-03-23T17:02:37.794Z,10.37
2019-03-23T17:05:06.955Z,11.20
2019-03-23T17:07:35.631Z,6.90
2019-03-23T17:10:05.252Z,9.27
2019-03-23T17:12:37.068Z,7.10
2019-03-23T17:15:06.929Z,5.93
2019-03-23T17:17:37.530Z,9.17
2019-03-23T17:20:07.876Z,10.27
2019-03-23T17:22:36.590Z,13.43
2019-03-23T17:25:05.915Z,7.53
2019-03-23T17:27:35.014Z,6.77
2019-03-23T17:30:04.395Z,9.17
2019-03-23T17:32:33.387Z,6.63
2019-03-23T17:35:02.146Z,9.97
2019-03-23T17:37:31.033Z,7.37
2019-03-23T17:39:59.951Z,6.93
2019-03-23T17:42:28.744Z,12.33
2019-03-23T17:44:57.505Z,5.43
2019-03-23T17:47:26.366Z,10.07
2019-03-23T17:49:57.311Z,7.40
2019-03-23T17:52:26.152Z,6.07
2019-03-23T17:54:55.084Z,7.03
2019-03-23T17:57:23.807Z,5.90
2019-03-23T17:59:52.490Z,7.23
2019-03-23T18:02:21.466Z,10.93
2019-03-23T18:04:51.935Z,6.30
2019-03-23T18:07:20.618Z,11.97
2019-03-23T18:09:49.515Z,8.10
2019-03-23T18:12:18.348Z,5.40
2019-03-23T18:14:47.381Z,10.13
2019-03-23T18:17:16.040Z,5.00
2019-03-23T18:19:45.700Z,8.43
2019-03-23T18:22:16.409Z,8.50
2019-03-23T18:24:45.261Z,8.30
2019-03-23T18:27:14.064Z,10.93
2019-03-23T18:29:42.990Z,9.40
2019-03-23T18:32:13.447Z,9.40
2019-03-23T18:34:44.047Z,8.43
2019-03-23T18:37:13.065Z,11.13
2019-03-23T18:39:41.711Z,11.10
2019-03-23T18:42:10.554Z,9.93
2019-03-23T18:44:39.384Z,7.97
2019-03-23T18:47:17.593Z,7.70
2019-03-23T18:49:46.726Z,8.10
2019-03-23T18:52:16.089Z,12.33
2019-03-23T18:54:45.191Z,7.50
2019-03-23T18:57:13.976Z,8.90
2019-03-23T18:59:42.862Z,22.40
2019-03-23T19:02:11.901Z,9.87
2019-03-23T19:04:40.716Z,13.47
2019-03-23T19:07:09.467Z,11.60
2019-03-23T19:09:38.226Z,9.13
2019-03-23T19:12:07.104Z,8.43
2019-03-23T19:14:35.976Z,5.77
2019-03-23T19:17:04.729Z,13.60
2019-03-23T19:19:33.800Z,10.93
2019-03-23T19:22:03.197Z,10.30
2019-03-23T19:24:31.926Z,13.23
2019-03-23T19:27:00.587Z,12.27
2019-03-23T19:29:30.245Z,7.73
2019-03-23T19:31:58.940Z,13.83
2019-03-23T19:34:27.867Z,12.23
2019-03-23T19:36:56.703Z,10.90
2019-03-23T19:39:25.475Z,10.00
2019-03-23T19:41:54.416Z,9.53
2019-03-23T19:44:23.090Z,10.37
2019-03-23T19:46:52.953Z,8.03
2019-03-23T19:49:21.866Z,8.87
2019-03-23T19:51:51.008Z,12.23
2019-03-23T19:54:19.786Z,9.00
2019-03-23T19:56:48.634Z,10.17
2019-03-23T19:59:18.472Z,5.43
2019-03-23T20:01:47.211Z,9.80
2019-03-23T20:04:15.850Z,12.47
2019-03-23T20:06:46.703Z,10.90
2019-03-23T20:09:15.367Z,8.50
2019-03-23T20:11:44.278Z,7.83
2019-03-23T20:14:13.087Z,8.73
2019-03-23T20:16:42.274Z,10.93
2019-03-23T20:19:11.499Z,8.83
2019-03-23T20:21:42.570Z,13.73
2019-03-23T20:24:11.596Z,13.13
2019-03-23T20:26:40.418Z,13.63
2019-03-23T20:29:09.303Z,11.53
2019-03-23T20:31:38.273Z,8.30
2019-03-23T20:34:07.513Z,10.50
2019-03-23T20:36:36.401Z,11.57
2019-03-23T20:39:06.778Z,14.20
2019-03-23T20:41:35.704Z,15.83
2019-03-23T20:44:09.344Z,13.80
2019-03-23T20:46:35.574Z,11.57
2019-03-23T20:49:07.202Z,15.70
2019-03-23T20:51:36.666Z,9.97
2019-03-23T20:54:05.622Z,10.90
2019-03-23T20:56:35.396Z,17.50
2019-03-23T20:59:04.312Z,11.60
2019-03-23T21:01:33.343Z,10.33
2019-03-23T21:04:02.071Z,14.13
2019-03-23T21:06:30.997Z,13.87
2019-03-23T21:09:01.693Z,13.07
2019-03-23T21:11:30.579Z,13.53
2019-03-23T21:13:59.959Z,15.77
2019-03-23T21:16:28.802Z,16.73
2019-03-23T21:18:57.806Z,14.63
2019-03-23T21:21:26.653Z,17.77
2019-03-23T21:23:55.706Z,20.47
2019-03-23T21:26:29.785Z,15.83
2019-03-23T21:28:58.556Z,14.50
2019-03-23T21:31:27.422Z,14.40
2019-03-23T21:33:56.183Z,15.70
2019-03-23T21:36:24.909Z,10.80
2019-03-23T21:38:54.005Z,13.10
2019-03-23T21:41:22.722Z,17.23
2019-03-23T21:43:51.407Z,21.77
2019-03-23T21:46:20.365Z,16.13
2019-03-23T21:48:49.026Z,19.43
2019-03-23T21:51:19.306Z,17.20
2019-03-23T21:53:48.088Z,15.03
2019-03-23T21:56:17.076Z,11.77
2019-03-23T21:58:49.188Z,16.77
2019-03-23T22:01:17.909Z,18.93
2019-03-23T22:03:46.726Z,19.93
2019-03-23T22:06:16.482Z,16.20
2019-03-23T22:08:47.248Z,19.80
2019-03-23T22:11:16.059Z,18.73
2019-03-23T22:13:44.956Z,17.80
2019-03-23T22:16:13.639Z,17.30
2019-03-23T22:18:42.878Z,19.20
2019-03-23T22:21:11.550Z,13.37
2019-03-23T22:23:40.442Z,15.37
2019-03-23T22:26:11.525Z,18.70
2019-03-23T22:28:43.408Z,19.17
2019-03-23T22:31:12.113Z,14.07
2019-03-23T22:33:42.764Z,14.80
2019-03-23T22:36:11.561Z,19.10
2019-03-23T22:38:40.271Z,16.70
2019-03-23T22:41:08.912Z,20.50
2019-03-23T22:43:37.937Z,11.63
2019-03-23T22:46:06.624Z,21.23
2019-03-23T22:48:35.310Z,17.13
2019-03-23T22:51:04.310Z,23.73
2019-03-23T22:53:32.993Z,18.03
2019-03-23T22:56:02.011Z,18.03
2019-03-23T22:58:30.738Z,17.10
2019-03-23T23:00:59.796Z,16.80
2019-03-23T23:03:30.521Z,14.43
2019-03-23T23:05:59.844Z,15.60
2019-03-23T23:08:28.824Z,18.87
2019-03-23T23:10:57.963Z,15.73
2019-03-23T23:13:26.677Z,14.00
2019-03-23T23:15:55.350Z,17.27
2019-03-23T23:18:24.211Z,14.67
2019-03-23T23:20:52.917Z,17.50
2019-03-23T23:23:21.833Z,12.30
2019-03-23T23:25:50.769Z,13.13
2019-03-23T23:28:19.507Z,13.43
2019-03-23T23:30:50.327Z,22.10
2019-03-23T23:33:19.429Z,15.03
2019-03-23T23:35:48.094Z,13.63
2019-03-23T23:38:17.117Z,13.87
2019-03-23T23:40:45.912Z,15.63
2019-03-23T23:43:15.189Z,17.43
2019-03-23T23:45:43.865Z,17.97
2019-03-23T23:48:12.683Z,23.93
2019-03-23T23:50:41.796Z,19.97
2019-03-23T23:53:11.886Z,16.03
2019-03-23T23:55:40.608Z,18.07
2019-03-23T23:58:09.516Z,17.13
